Time;durP1;ratioP1;P1;durP2;ratioP2;P2;SDS_P1;SDS_P2;PMS_P1;PMS_P2;Temp;Humidity;BMP_temperature;BMP_pressure;BME280_temperature;BME280_humidity;BME280_pressure;Samples;Min_cycle;Max_cycle;Signal;HPM_P1;HPM_P2
2022/09/14 06:09:30;;;;;;;10.10;5.88;;;;;;;;;;6108658;23;20198;-90
2022/09/14 06:12:35;;;;;;;11.70;5.53;;;;;;;;;;6091207;23;20715;-90
2022/09/14 06:15:43;;;;;;;9.40;4.78;;;;;;;;;;6091189;23;20199;-90
2022/09/14 06:18:48;;;;;;;9.65;5.50;;;;;;;;;;6091036;23;20250;-92
2022/09/14 06:21:54;;;;;;;11.00;5.63;;;;;;;;;;6106685;23;20166;-88
2022/09/14 06:25:00;;;;;;;14.18;5.82;;;;;;;;;;6091211;23;20177;-88
2022/09/14 06:28:05;;;;;;;9.90;5.43;;;;;;;;;;6094586;23;20287;-90
2022/09/14 06:31:13;;;;;;;9.15;5.63;;;;;;;;;;6093236;23;20230;-87
2022/09/14 06:34:18;;;;;;;8.20;5.47;;;;;;;;;;6091327;23;20169;-90
2022/09/14 06:37:24;;;;;;;17.85;5.18;;;;;;;;;;6090365;23;20174;-88
2022/09/14 06:40:30;;;;;;;8.70;5.15;;;;;;;;;;6091218;23;20178;-89
2022/09/14 06:43:37;;;;;;;13.45;5.28;;;;;;;;;;6092467;23;20173;-89
2022/09/14 06:46:45;;;;;;;9.38;5.20;;;;;;;;;;6091287;23;20289;-89
2022/09/14 06:49:50;;;;;;;14.90;6.00;;;;;;;;;;6091715;23;20185;-89
2022/09/14 06:52:56;;;;;;;9.43;5.13;;;;;;;;;;6091039;23;20242;-91
2022/09/14 06:56:03;;;;;;;9.80;5.45;;;;;;;;;;6090712;23;20170;-89
2022/09/14 06:59:10;;;;;;;9.55;5.22;;;;;;;;;;6092495;23;20491;-89
2022/09/14 07:02:15;;;;;;;10.80;5.45;;;;;;;;;;6091451;23;20492;-90
2022/09/14 07:05:21;;;;;;;11.30;5.70;;;;;;;;;;6093248;23;20174;-90
2022/09/14 07:08:28;;;;;;;12.00;5.93;;;;;;;;;;6082352;23;20658;-90
2022/09/14 07:11:35;;;;;;;13.43;5.95;;;;;;;;;;6080607;23;20791;-90
2022/09/14 07:14:41;;;;;;;9.13;5.20;;;;;;;;;;6081733;23;20178;-94
2022/09/14 07:17:46;;;;;;;10.13;5.13;;;;;;;;;;6084713;23;20154;-92
2022/09/14 07:20:51;;;;;;;7.50;4.57;;;;;;;;;;6084900;23;20194;-90
2022/09/14 07:23:56;;;;;;;7.55;5.07;;;;;;;;;;6077776;23;20174;-90
2022/09/14 07:27:03;;;;;;;9.43;4.60;;;;;;;;;;6076801;23;20220;-93
2022/09/14 07:30:09;;;;;;;12.13;5.57;;;;;;;;;;6078999;23;20158;-90
2022/09/14 07:33:14;;;;;;;10.43;5.32;;;;;;;;;;6083045;23;20304;-91
2022/09/14 07:36:19;;;;;;;7.68;4.88;;;;;;;;;;6080422;23;20199;-90
2022/09/14 07:39:24;;;;;;;13.15;5.72;;;;;;;;;;6078630;23;20166;-92
2022/09/14 07:42:30;;;;;;;8.50;5.13;;;;;;;;;;6079943;23;20163;-91
2022/09/14 07:45:36;;;;;;;10.10;4.63;;;;;;;;;;6078900;23;20162;-89
2022/09/14 07:49:01;;;;;;;11.50;5.07;;;;;;;;;;6077660;23;20509;-91
2022/09/14 07:52:07;;;;;;;12.65;5.38;;;;;;;;;;6080099;23;20174;-92
2022/09/14 07:55:12;;;;;;;9.40;5.85;;;;;;;;;;6080143;23;20175;-89
2022/09/14 07:58:19;;;;;;;11.48;5.75;;;;;;;;;;6079853;23;20626;-91
2022/09/14 08:01:24;;;;;;;7.20;5.05;;;;;;;;;;6080598;23;20254;-89
2022/09/14 08:04:34;;;;;;;9.07;6.10;;;;;;;;;;6083559;23;20185;-89
2022/09/14 08:07:39;;;;;;;8.75;5.30;;;;;;;;;;6080527;23;20194;-89
2022/09/14 08:10:45;;;;;;;10.38;5.90;;;;;;;;;;6080425;23;20174;-89
2022/09/14 08:13:52;;;;;;;13.10;5.65;;;;;;;;;;6079946;23;20190;-91
2022/09/14 08:16:58;;;;;;;13.35;6.05;;;;;;;;;;6080711;23;20171;-90
2022/09/14 08:20:03;;;;;;;12.25;5.93;;;;;;;;;;6081610;23;20198;-90
2022/09/14 08:23:08;;;;;;;10.02;5.40;;;;;;;;;;6080808;23;20182;-92
2022/09/14 08:26:14;;;;;;;8.82;5.40;;;;;;;;;;6081116;23;20170;-90
2022/09/14 08:29:20;;;;;;;11.32;6.03;;;;;;;;;;6081208;23;20254;-89
2022/09/14 08:32:25;;;;;;;10.68;5.75;;;;;;;;;;6080409;23;20158;-93
2022/09/14 08:35:30;;;;;;;14.65;5.78;;;;;;;;;;6081384;23;20190;-91
2022/09/14 08:38:35;;;;;;;11.75;5.55;;;;;;;;;;6081034;23;20179;-90
2022/09/14 08:41:42;;;;;;;14.60;5.70;;;;;;;;;;6081974;23;20202;-91
2022/09/14 08:44:51;;;;;;;9.68;5.57;;;;;;;;;;6083780;23;20174;-92
2022/09/14 08:48:01;;;;;;;11.45;5.55;;;;;;;;;;6091164;23;20220;-90
2022/09/14 08:54:26;;;;;;;10.38;4.97;;;;;;;;;;6084444;23;20231;-92
2022/09/14 08:57:34;;;;;;;12.82;5.38;;;;;;;;;;6084304;23;20550;-88
2022/09/14 09:00:43;;;;;;;9.55;4.80;;;;;;;;;;6083192;23;20691;-89
2022/09/14 09:03:55;;;;;;;11.35;5.20;;;;;;;;;;6082516;23;20163;-91
2022/09/14 09:07:05;;;;;;;7.90;4.85;;;;;;;;;;6084621;23;20251;-91
2022/09/14 09:10:11;;;;;;;14.83;5.30;;;;;;;;;;6081458;23;20519;-89
2022/09/14 09:13:18;;;;;;;11.00;5.68;;;;;;;;;;6084678;23;20207;-91
2022/09/14 09:16:26;;;;;;;8.93;5.13;;;;;;;;;;6080497;23;20683;-89
2022/09/14 09:19:33;;;;;;;9.02;4.70;;;;;;;;;;6080022;23;20222;-90
2022/09/14 09:22:40;;;;;;;6.35;3.92;;;;;;;;;;6079935;23;20627;-90
2022/09/14 09:25:49;;;;;;;8.70;4.95;;;;;;;;;;6082628;23;20170;-90
2022/09/14 09:28:57;;;;;;;12.32;4.28;;;;;;;;;;6081215;23;20171;-90
2022/09/14 09:32:05;;;;;;;7.05;3.85;;;;;;;;;;6079375;23;20681;-90
2022/09/14 09:35:34;;;;;;;12.00;5.05;;;;;;;;;;6065889;23;20162;-90
2022/09/14 09:38:45;;;;;;;12.07;3.92;;;;;;;;;;6064801;23;20158;-94
2022/09/14 09:41:56;;;;;;;12.10;3.95;;;;;;;;;;6066915;23;20202;-88
2022/09/14 09:45:03;;;;;;;13.25;4.05;;;;;;;;;;6063689;23;20178;-90
2022/09/14 09:48:29;;;;;;;11.75;3.00;;;;;;;;;;6064135;23;20157;-89
2022/09/14 09:51:35;;;;;;;6.47;3.10;;;;;;;;;;6063068;23;20179;-93
2022/09/14 09:54:41;;;;;;;6.55;3.47;;;;;;;;;;6066456;23;20166;-90
2022/09/14 09:57:47;;;;;;;5.95;2.95;;;;;;;;;;6067332;23;20250;-90
2022/09/14 10:00:56;;;;;;;8.70;2.90;;;;;;;;;;6065650;23;20194;-89
2022/09/14 10:04:05;;;;;;;6.20;3.30;;;;;;;;;;6065779;23;20199;-90
2022/09/14 10:07:21;;;;;;;5.80;2.92;;;;;;;;;;6068568;23;20196;-90
2022/09/14 10:10:28;;;;;;;8.23;3.60;;;;;;;;;;6095920;23;20298;-90
2022/09/14 10:13:34;;;;;;;10.77;3.42;;;;;;;;;;6093941;23;20486;-91
2022/09/14 10:16:41;;;;;;;11.15;3.00;;;;;;;;;;6096454;23;20149;-88
2022/09/14 10:19:51;;;;;;;5.13;2.88;;;;;;;;;;6095781;23;20170;-88
2022/09/14 10:22:56;;;;;;;9.45;3.08;;;;;;;;;;6095626;23;20174;-90
2022/09/14 10:26:16;;;;;;;8.85;3.05;;;;;;;;;;6096955;23;20241;-91
2022/09/14 10:29:31;;;;;;;8.63;3.25;;;;;;;;;;6093034;23;20173;-90
2022/09/14 10:32:36;;;;;;;8.95;3.25;;;;;;;;;;6091666;23;20265;-93
2022/09/14 10:35:48;;;;;;;12.00;3.10;;;;;;;;;;6096013;23;20165;-91
2022/09/14 10:38:57;;;;;;;4.95;3.30;;;;;;;;;;6095741;23;20181;-91
2022/09/14 10:42:18;;;;;;;4.90;2.63;;;;;;;;;;6091816;23;20194;-88
2022/09/14 10:45:25;;;;;;;4.82;2.58;;;;;;;;;;6094033;23;20226;-91
2022/09/14 10:48:57;;;;;;;8.57;3.20;;;;;;;;;;6095710;23;20165;-91
2022/09/14 10:52:11;;;;;;;8.25;2.50;;;;;;;;;;6094278;23;20614;-91
2022/09/14 10:55:30;;;;;;;9.30;2.95;;;;;;;;;;6091121;23;20194;-90
2022/09/14 10:58:59;;;;;;;7.50;2.70;;;;;;;;;;6092957;23;20174;-92
2022/09/14 11:02:18;;;;;;;6.18;2.80;;;;;;;;;;6093225;23;20202;-91
2022/09/14 11:05:26;;;;;;;6.82;3.00;;;;;;;;;;6093784;23;20497;-91
2022/09/14 11:08:34;;;;;;;6.43;2.92;;;;;;;;;;6079351;23;20366;-91
2022/09/14 11:11:45;;;;;;;10.75;2.95;;;;;;;;;;6081273;23;20174;-91
2022/09/14 11:14:58;;;;;;;7.90;3.20;;;;;;;;;;6079495;23;20183;-92
2022/09/14 11:18:08;;;;;;;7.47;2.88;;;;;;;;;;6079992;23;20169;-91
2022/09/14 11:21:18;;;;;;;9.15;3.08;;;;;;;;;;6082111;23;20654;-91
2022/09/14 11:24:26;;;;;;;6.53;3.35;;;;;;;;;;6081182;23;20162;-90
2022/09/14 11:27:35;;;;;;;5.25;2.33;;;;;;;;;;6079753;23;20184;-90
2022/09/14 11:30:43;;;;;;;7.93;2.58;;;;;;;;;;6084871;23;20286;-93
2022/09/14 11:33:49;;;;;;;6.07;2.70;;;;;;;;;;6082461;23;20174;-90
2022/09/14 11:36:56;;;;;;;10.07;2.35;;;;;;;;;;6080017;23;20637;-89
2022/09/14 11:40:09;;;;;;;7.15;2.50;;;;;;;;;;6083309;23;20275;-91
2022/09/14 11:43:15;;;;;;;4.40;2.35;;;;;;;;;;6082609;23;20174;-92
2022/09/14 11:46:22;;;;;;;8.60;2.70;;;;;;;;;;6085546;23;20243;-90
2022/09/14 11:49:30;;;;;;;8.45;2.60;;;;;;;;;;6086325;23;20185;-92
2022/09/14 11:52:40;;;;;;;7.68;2.40;;;;;;;;;;6083358;23;20178;-90
2022/09/14 11:55:48;;;;;;;8.57;2.35;;;;;;;;;;6082049;23;20190;-92
2022/09/14 11:58:55;;;;;;;5.35;2.65;;;;;;;;;;6082767;23;20310;-91
2022/09/14 12:02:26;;;;;;;6.38;2.50;;;;;;;;;;6081603;23;20198;-91
2022/09/14 12:05:35;;;;;;;7.43;2.45;;;;;;;;;;6083283;23;20174;-92
2022/09/14 12:08:40;;;;;;;5.85;2.05;;;;;;;;;;6084288;23;20201;-92
2022/09/14 12:11:46;;;;;;;4.28;2.20;;;;;;;;;;6085360;23;20181;-91
2022/09/14 12:15:07;;;;;;;8.13;2.33;;;;;;;;;;6083834;23;20250;-92
2022/09/14 12:18:24;;;;;;;6.88;2.33;;;;;;;;;;6083730;23;20178;-91
2022/09/14 12:21:31;;;;;;;12.30;2.38;;;;;;;;;;6083930;23;20195;-92
2022/09/14 12:24:38;;;;;;;5.30;2.45;;;;;;;;;;6083306;23;20215;-88
2022/09/14 12:27:44;;;;;;;4.22;3.17;;;;;;;;;;6083829;23;20174;-90
2022/09/14 12:31:10;;;;;;;22.83;3.25;;;;;;;;;;6081984;23;20170;-91
2022/09/14 12:34:19;;;;;;;8.50;2.97;;;;;;;;;;6083103;23;20175;-91
2022/09/14 12:37:30;;;;;;;6.57;3.05;;;;;;;;;;6083298;23;20172;-90
2022/09/14 12:40:37;;;;;;;11.38;2.90;;;;;;;;;;6081775;23;20241;-91
2022/09/14 12:43:52;;;;;;;6.47;3.00;;;;;;;;;;6080042;23;20174;-93
2022/09/14 12:46:58;;;;;;;6.32;2.50;;;;;;;;;;6080285;23;20227;-91
2022/09/14 12:50:15;;;;;;;5.57;2.65;;;;;;;;;;6080996;23;20618;-90
2022/09/14 12:53:27;;;;;;;8.45;3.22;;;;;;;;;;6080472;23;20246;-90
2022/09/14 12:56:40;;;;;;;5.55;2.40;;;;;;;;;;6080744;23;20175;-87
2022/09/14 22:12:09;;;;;;;8.95;2.72;;;;;;;;;;6033801;23;20198;-88
2022/09/14 22:15:18;;;;;;;10.70;3.15;;;;;;;;;;6065468;23;20625;-88
2022/09/14 22:18:25;;;;;;;9.82;3.47;;;;;;;;;;6062714;23;20158;-88
2022/09/14 22:21:33;;;;;;;8.70;3.33;;;;;;;;;;6063834;23;20181;-89
2022/09/14 22:24:39;;;;;;;7.47;3.13;;;;;;;;;;6064024;23;20220;-89
2022/09/14 22:27:44;;;;;;;4.53;2.75;;;;;;;;;;6063936;23;20627;-88
2022/09/14 22:30:55;;;;;;;5.78;3.05;;;;;;;;;;6064595;23;20175;-89
2022/09/14 22:34:02;;;;;;;7.90;3.22;;;;;;;;;;6067236;23;20158;-88
2022/09/14 22:37:08;;;;;;;9.77;3.25;;;;;;;;;;6066153;23;20183;-91
2022/09/14 22:40:13;;;;;;;11.77;3.08;;;;;;;;;;6065867;23;20183;-88
2022/09/14 22:43:18;;;;;;;8.23;3.10;;;;;;;;;;6067107;23;20266;-91
2022/09/14 22:46:27;;;;;;;9.30;3.47;;;;;;;;;;6066944;23;20170;-89
2022/09/14 22:49:32;;;;;;;12.35;3.05;;;;;;;;;;6064401;23;20250;-91
2022/09/14 22:52:40;;;;;;;5.47;3.00;;;;;;;;;;6063418;23;20170;-88
2022/09/14 22:55:45;;;;;;;18.55;3.42;;;;;;;;;;6064544;23;20174;-89
2022/09/14 22:58:51;;;;;;;10.93;3.70;;;;;;;;;;6065585;23;20166;-88
2022/09/14 23:01:58;;;;;;;9.98;3.55;;;;;;;;;;6064781;23;20228;-89
2022/09/14 23:05:05;;;;;;;7.43;3.00;;;;;;;;;;6069562;23;20190;-90
2022/09/14 23:08:15;;;;;;;11.35;3.38;;;;;;;;;;6069240;23;20223;-89
2022/09/14 23:11:20;;;;;;;11.38;3.78;;;;;;;;;;6071361;23;20184;-91
2022/09/14 23:14:26;;;;;;;9.90;3.75;;;;;;;;;;6071180;23;20170;-90
2022/09/14 23:29:19;;;;;;;6.05;3.13;;;;;;;;;;6103143;23;20229;-86
2022/09/14 23:32:24;;;;;;;7.82;3.13;;;;;;;;;;6100672;23;20272;-88
2022/09/14 23:35:29;;;;;;;11.13;3.28;;;;;;;;;;6096579;23;20199;-89
2022/09/14 23:38:44;;;;;;;5.93;3.30;;;;;;;;;;6096239;23;20206;-89
